createdAt,value
2019-04-25T00:01:42.546Z,97.00
2019-04-25T00:04:11.771Z,97.20
2019-04-25T00:06:41.139Z,95.40
2019-04-25T00:09:22.012Z,95.70
2019-04-25T00:11:51.993Z,94.40
2019-04-25T00:14:22.576Z,93.10
2019-04-25T00:16:52.517Z,92.40
2019-04-25T00:19:21.912Z,92.00
2019-04-25T00:22:01.964Z,92.30
2019-04-25T00:24:39.599Z,92.10
2019-04-25T00:27:07.868Z,92.80
2019-04-25T00:29:35.785Z,92.50
2019-04-25T00:32:03.962Z,94.00
2019-04-25T00:34:33.685Z,94.20
2019-04-25T00:37:02.507Z,94.80
2019-04-25T00:39:44.767Z,96.10
2019-04-25T00:42:12.548Z,96.00
2019-04-25T00:44:42.827Z,96.30
2019-04-25T00:47:11.791Z,97.00
2019-04-25T00:49:39.858Z,97.40
2019-04-25T00:52:08.188Z,97.50
2019-04-25T00:54:36.102Z,97.20
2019-04-25T00:57:04.287Z,97.60
2019-04-25T00:59:42.966Z,97.80
2019-04-25T01:02:24.493Z,98.40
2019-04-25T01:04:53.912Z,98.30
2019-04-25T01:07:22.430Z,97.70
2019-04-25T01:09:52.107Z,98.60
2019-04-25T01:12:21.612Z,98.30
2019-04-25T01:14:50.453Z,97.30
2019-04-25T01:17:19.537Z,96.40
2019-04-25T01:19:47.501Z,97.40
2019-04-25T01:22:15.528Z,96.10
2019-04-25T01:24:43.969Z,96.20
2019-04-25T01:27:13.526Z,96.00
2019-04-25T01:29:41.729Z,95.80
2019-04-25T01:32:11.947Z,93.60
2019-04-25T01:34:47.037Z,92.80
2019-04-25T01:37:23.647Z,92.40
2019-04-25T01:40:11.804Z,93.10
2019-04-25T01:42:58.023Z,93.80
2019-04-25T01:45:29.272Z,94.10
2019-04-25T01:47:57.303Z,93.30
2019-04-25T01:50:25.578Z,91.60
2019-04-25T01:52:55.346Z,92.80
2019-04-25T01:55:23.511Z,92.40
2019-04-25T01:57:51.634Z,92.60
2019-04-25T02:00:26.370Z,92.80
2019-04-25T02:02:55.791Z,92.70
2019-04-25T02:05:24.413Z,91.60
2019-04-25T02:07:53.442Z,91.20
2019-04-25T02:10:23.407Z,91.90
2019-04-25T02:12:56.328Z,91.90
2019-04-25T02:15:27.907Z,91.10
2019-04-25T02:17:57.872Z,88.90
2019-04-25T02:20:26.223Z,89.60
2019-04-25T02:22:55.283Z,91.10
2019-04-25T02:25:24.631Z,90.90
2019-04-25T02:27:55.064Z,89.60
2019-04-25T02:30:25.418Z,91.40
2019-04-25T02:32:56.952Z,92.80
2019-04-25T02:35:24.633Z,93.20
2019-04-25T02:37:55.352Z,92.70
2019-04-25T02:40:24.022Z,93.90
2019-04-25T02:42:55.808Z,93.60
2019-04-25T02:45:55.663Z,93.90
2019-04-25T02:48:44.019Z,94.60
2019-04-25T02:51:18.834Z,95.40
2019-04-25T02:53:48.150Z,97.10
2019-04-25T02:56:30.530Z,96.00
2019-04-25T02:58:46.640Z,95.90
2019-04-25T03:01:22.355Z,95.40
2019-04-25T03:03:46.796Z,95.50
2019-04-25T03:06:15.093Z,94.30
2019-04-25T03:08:44.919Z,94.20
2019-04-25T03:11:14.980Z,93.70
2019-04-25T03:13:44.222Z,91.50
2019-04-25T03:16:13.979Z,92.50
2019-04-25T03:19:14.270Z,92.00
2019-04-25T03:21:45.184Z,91.50
2019-04-25T03:24:16.614Z,91.90
2019-04-25T03:26:44.309Z,90.40
2019-04-25T03:29:13.666Z,90.40
2019-04-25T03:31:44.726Z,90.50
2019-04-25T03:34:15.870Z,91.10
2019-04-25T03:36:43.704Z,90.70
2019-04-25T03:39:14.451Z,90.70
2019-04-25T03:41:42.015Z,91.00
2019-04-25T03:44:10.108Z,91.50
2019-04-25T03:46:38.361Z,90.40
2019-04-25T03:49:06.505Z,91.40
2019-04-25T03:51:34.574Z,90.80
2019-04-25T03:54:04.755Z,91.00
2019-04-25T03:56:33.381Z,90.70
2019-04-25T03:59:02.687Z,91.40
2019-04-25T04:01:31.907Z,90.00
2019-04-25T04:03:59.868Z,90.10
2019-04-25T04:06:27.879Z,89.80
2019-04-25T04:08:55.866Z,90.10
2019-04-25T04:11:24.189Z,89.90
2019-04-25T04:13:53.783Z,86.50
2019-04-25T04:16:24.907Z,87.40
2019-04-25T04:18:56.985Z,88.90
2019-04-25T04:21:50.450Z,89.90
2019-04-25T04:24:44.137Z,90.50
2019-04-25T04:27:16.683Z,90.20
2019-04-25T04:29:44.867Z,87.70
2019-04-25T04:32:14.781Z,86.00
2019-04-25T04:34:45.454Z,83.80
2019-04-25T04:37:14.801Z,80.50
2019-04-25T04:39:43.765Z,74.30
2019-04-25T04:42:13.715Z,74.40
2019-04-25T04:44:43.691Z,67.50
2019-04-25T04:47:12.609Z,67.30
2019-04-25T04:49:41.807Z,69.70
2019-04-25T04:52:10.929Z,68.80
2019-04-25T04:54:38.974Z,69.00
2019-04-25T04:57:18.469Z,68.80
2019-04-25T04:59:37.080Z,67.40
2019-04-25T05:02:17.329Z,67.40
2019-04-25T05:05:08.241Z,67.80
2019-04-25T05:07:38.877Z,69.60
2019-04-25T05:10:06.917Z,70.00
2019-04-25T05:12:34.944Z,70.80
2019-04-25T05:15:04.119Z,70.10
2019-04-25T05:17:34.159Z,71.30
2019-04-25T05:20:03.550Z,70.80
2019-04-25T05:22:33.264Z,70.50
2019-04-25T05:25:03.354Z,70.30
2019-04-25T05:27:41.510Z,70.90
2019-04-25T05:30:01.639Z,71.80
2019-04-25T05:32:29.593Z,72.00
2019-04-25T05:34:57.646Z,71.40
2019-04-25T05:37:26.480Z,72.00
2019-04-25T05:39:54.735Z,71.90
2019-04-25T05:42:48.129Z,72.40
2019-04-25T05:45:18.648Z,72.60
2019-04-25T05:47:48.491Z,73.20
2019-04-25T05:50:17.919Z,73.50
2019-04-25T05:52:46.519Z,73.10
2019-04-25T05:55:17.341Z,72.10
2019-04-25T05:57:49.592Z,72.30
2019-04-25T06:00:15.180Z,73.60
2019-04-25T06:02:44.286Z,72.10
2019-04-25T06:05:13.299Z,73.10
2019-04-25T06:07:43.134Z,72.60
2019-04-25T06:10:22.144Z,72.10
2019-04-25T06:12:56.786Z,72.40
2019-04-25T06:15:28.199Z,71.80
2019-04-25T06:18:23.989Z,67.50
2019-04-25T06:20:54.270Z,59.30
2019-04-25T06:23:41.971Z,49.80
2019-04-25T06:26:23.089Z,46.30
2019-04-25T06:28:52.010Z,39.40
2019-04-25T06:31:13.662Z,37.90
2019-04-25T06:33:43.407Z,35.60
2019-04-25T06:36:11.545Z,33.90
2019-04-25T06:38:39.694Z,31.70
2019-04-25T06:41:07.800Z,31.20
2019-04-25T06:43:37.912Z,29.40
2019-04-25T06:46:25.556Z,28.20
2019-04-25T06:49:03.515Z,28.20
2019-04-25T06:51:50.791Z,27.90
2019-04-25T06:54:19.174Z,27.90
2019-04-25T06:56:47.290Z,27.10
2019-04-25T06:59:15.415Z,27.70
2019-04-25T07:01:44.017Z,27.70
2019-04-25T07:04:13.935Z,28.90
2019-04-25T07:06:43.565Z,30.90
2019-04-25T07:09:12.053Z,35.00
2019-04-25T07:11:41.196Z,35.80
2019-04-25T07:14:09.539Z,39.00
2019-04-25T07:16:37.853Z,40.70
2019-04-25T07:19:05.968Z,40.40
2019-04-25T07:21:34.637Z,44.40
2019-04-25T07:24:04.250Z,43.30
2019-04-25T07:27:01.190Z,43.40
2019-04-25T07:29:51.945Z,45.70
2019-04-25T07:32:43.884Z,44.10
2019-04-25T07:35:13.507Z,43.20
2019-04-25T07:37:41.924Z,44.10
2019-04-25T07:40:13.809Z,44.00
2019-04-25T07:42:43.823Z,43.70
2019-04-25T07:45:14.166Z,46.90
2019-04-25T07:47:43.913Z,43.40
2019-04-25T07:50:13.965Z,44.30
2019-04-25T07:52:44.223Z,44.70
2019-04-25T07:55:13.771Z,45.00
2019-04-25T07:57:43.777Z,42.90
2019-04-25T08:00:14.718Z,44.90
2019-04-25T08:02:43.548Z,43.60
2019-04-25T08:05:15.787Z,42.90
2019-04-25T08:07:43.973Z,45.30
2019-04-25T08:10:17.620Z,42.10
2019-04-25T08:12:47.422Z,41.60
2019-04-25T08:15:23.634Z,39.80
2019-04-25T08:18:09.806Z,40.60
2019-04-25T08:20:38.280Z,40.80
2019-04-25T08:23:06.771Z,41.10
2019-04-25T08:25:38.852Z,39.70
2019-04-25T08:28:07.957Z,39.40
2019-04-25T08:30:36.682Z,38.90
2019-04-25T08:33:05.700Z,39.90
2019-04-25T08:35:35.166Z,39.10
2019-04-25T08:38:05.827Z,38.40
2019-04-25T08:40:35.805Z,38.60
2019-04-25T08:43:04.306Z,38.90
2019-04-25T08:45:33.553Z,39.30
2019-04-25T08:48:03.659Z,38.40
2019-04-25T08:51:00.490Z,38.50
2019-04-25T08:53:35.349Z,38.70
2019-04-25T08:56:10.324Z,38.70
2019-04-25T08:59:08.044Z,37.90
2019-04-25T09:01:45.276Z,36.90
2019-04-25T09:04:24.244Z,37.30
2019-04-25T09:06:53.821Z,36.90
2019-04-25T09:09:23.549Z,36.50
2019-04-25T09:11:51.758Z,34.20
2019-04-25T09:14:19.873Z,35.40
2019-04-25T09:16:48.032Z,34.30
2019-04-25T09:19:16.191Z,32.40
2019-04-25T09:21:48.064Z,32.50
2019-04-25T09:24:14.114Z,31.50
2019-04-25T09:26:42.187Z,30.70
2019-04-25T09:29:17.558Z,31.20
2019-04-25T09:31:44.697Z,30.90
2019-04-25T09:34:13.895Z,31.90
2019-04-25T09:36:43.973Z,34.00
2019-04-25T09:39:35.585Z,32.50
2019-04-25T09:42:04.369Z,31.20
2019-04-25T09:44:40.894Z,32.40
2019-04-25T09:47:09.459Z,31.40
2019-04-25T09:49:39.148Z,29.80
2019-04-25T09:52:14.658Z,28.70
2019-04-25T09:54:50.954Z,29.90
2019-04-25T09:57:37.256Z,28.50
2019-04-25T10:00:07.701Z,28.30
2019-04-25T10:02:36.862Z,29.40
2019-04-25T10:05:05.474Z,29.10
2019-04-25T10:07:33.586Z,28.10
2019-04-25T10:10:03.771Z,28.30
2019-04-25T10:12:34.173Z,27.70
2019-04-25T10:15:24.440Z,27.00
2019-04-25T10:17:52.499Z,26.20
2019-04-25T10:20:20.495Z,26.60
2019-04-25T10:22:48.596Z,27.00
2019-04-25T10:25:17.753Z,27.10
2019-04-25T10:27:49.356Z,24.80
2019-04-25T10:30:21.606Z,25.60
2019-04-25T10:32:48.608Z,24.40
2019-04-25T10:35:16.633Z,24.50
2019-04-25T10:37:45.605Z,24.50
2019-04-25T10:40:15.586Z,24.20
2019-04-25T10:42:46.505Z,24.10
2019-04-25T10:45:22.914Z,24.30
2019-04-25T10:47:45.268Z,24.70
2019-04-25T10:50:14.917Z,24.00
2019-04-25T10:52:45.761Z,23.80
2019-04-25T10:55:14.217Z,23.80
2019-04-25T10:57:43.675Z,24.00
2019-04-25T11:00:24.916Z,23.90
2019-04-25T11:02:54.424Z,23.80
2019-04-25T11:05:23.844Z,23.50
2019-04-25T11:07:55.582Z,24.00
2019-04-25T11:10:23.666Z,24.00
2019-04-25T11:12:55.083Z,23.30
2019-04-25T11:15:23.459Z,23.30
2019-04-25T11:17:51.402Z,23.50
2019-04-25T11:20:28.800Z,23.10
2019-04-25T11:22:57.357Z,23.00
2019-04-25T11:25:25.492Z,23.10
2019-04-25T11:27:55.178Z,23.00
2019-04-25T11:30:24.852Z,22.10
2019-04-25T11:32:53.470Z,22.20
2019-04-25T11:35:24.234Z,22.30
2019-04-25T11:37:54.964Z,23.30
2019-04-25T11:40:31.865Z,23.30
2019-04-25T11:43:00.156Z,22.90
2019-04-25T11:45:28.047Z,22.60
2019-04-25T11:47:56.201Z,22.70
2019-04-25T11:50:24.478Z,22.50
2019-04-25T11:52:54.597Z,22.10
2019-04-25T11:55:23.878Z,21.60
2019-04-25T11:57:53.187Z,21.70
2019-04-25T12:00:26.258Z,21.40
2019-04-25T12:02:56.612Z,22.40
2019-04-25T12:05:24.500Z,22.70
2019-04-25T12:07:53.052Z,21.90
2019-04-25T12:10:21.954Z,21.20
2019-04-25T12:12:51.236Z,21.50
2019-04-25T12:15:19.377Z,21.90
2019-04-25T12:17:47.535Z,21.80
2019-04-25T12:20:17.455Z,21.90
2019-04-25T12:22:46.570Z,21.40
2019-04-25T12:25:15.099Z,21.60
2019-04-25T12:27:45.488Z,21.30
2019-04-25T12:30:14.043Z,21.30
2019-04-25T12:32:42.074Z,21.40
2019-04-25T12:35:10.633Z,21.60
2019-04-25T12:37:38.623Z,21.50
2019-04-25T12:40:08.641Z,20.70
2019-04-25T12:42:36.825Z,20.60
2019-04-25T12:45:35.048Z,21.00
2019-04-25T12:48:04.069Z,21.30
2019-04-25T12:50:33.642Z,20.90
2019-04-25T12:53:03.694Z,20.90
2019-04-25T12:55:31.831Z,21.10
2019-04-25T12:58:00.220Z,20.80
2019-04-25T13:00:29.842Z,20.90
2019-04-25T13:02:58.750Z,21.80
2019-04-25T13:05:26.864Z,20.80
2019-04-25T13:07:58.400Z,20.90
2019-04-25T13:10:24.869Z,20.90
2019-04-25T13:12:55.256Z,20.10
2019-04-25T13:15:23.464Z,20.00
2019-04-25T13:17:53.729Z,20.70
2019-04-25T13:20:21.871Z,20.70
2019-04-25T13:22:50.102Z,20.90
2019-04-25T13:25:19.954Z,20.80
2019-04-25T13:28:10.354Z,20.50
2019-04-25T13:31:04.034Z,20.80
2019-04-25T13:33:43.231Z,20.80
2019-04-25T13:36:13.385Z,20.80
2019-04-25T13:38:41.421Z,20.40
2019-04-25T13:41:09.849Z,20.90
2019-04-25T13:43:37.851Z,21.10
2019-04-25T13:46:05.844Z,21.10
2019-04-25T13:48:34.722Z,21.90
2019-04-25T13:51:04.155Z,21.30
2019-04-25T13:53:33.545Z,21.10
2019-04-25T13:56:03.310Z,21.40
2019-04-25T13:58:34.204Z,21.40
2019-04-25T14:01:12.687Z,21.40
2019-04-25T14:03:35.659Z,21.20
2019-04-25T14:06:03.956Z,21.30
2019-04-25T14:08:33.520Z,21.00
2019-04-25T14:11:05.001Z,21.60
2019-04-25T14:13:32.304Z,21.40
2019-04-25T14:16:28.957Z,21.50
2019-04-25T14:19:25.359Z,21.40
2019-04-25T14:21:56.821Z,21.20
2019-04-25T14:24:28.090Z,21.40
2019-04-25T14:26:54.877Z,21.00
2019-04-25T14:29:23.783Z,21.00
2019-04-25T14:31:53.362Z,21.40
2019-04-25T14:34:21.941Z,20.90
2019-04-25T14:36:49.942Z,20.80
2019-04-25T14:39:19.291Z,21.10
2019-04-25T14:41:47.188Z,21.10
2019-04-25T14:44:15.591Z,21.10
2019-04-25T14:46:43.615Z,21.10
2019-04-25T14:49:12.825Z,21.30
2019-04-25T14:51:40.689Z,22.60
2019-04-25T14:54:16.864Z,20.80
2019-04-25T14:57:13.803Z,20.20
2019-04-25T14:59:41.888Z,20.50
2019-04-25T15:02:09.916Z,20.50
2019-04-25T15:04:38.348Z,19.50
2019-04-25T15:07:06.394Z,20.20
2019-04-25T15:09:35.396Z,19.50
2019-04-25T15:12:04.084Z,18.60
2019-04-25T15:14:32.139Z,18.50
2019-04-25T15:17:00.333Z,18.10
2019-04-25T15:19:29.494Z,17.90
2019-04-25T15:21:57.856Z,18.30
2019-04-25T15:24:25.858Z,18.90
2019-04-25T15:26:53.856Z,18.90
2019-04-25T15:29:21.819Z,18.90
2019-04-25T15:31:56.177Z,18.40
2019-04-25T15:34:22.416Z,19.00
2019-04-25T15:36:56.510Z,19.20
2019-04-25T15:39:44.235Z,18.30
2019-04-25T15:42:31.950Z,18.10
2019-04-25T15:45:18.341Z,17.90
2019-04-25T15:47:46.694Z,18.20
2019-04-25T15:50:15.608Z,17.50
2019-04-25T15:52:44.959Z,18.00
2019-04-25T15:55:14.261Z,18.10
2019-04-25T15:57:42.540Z,17.80
2019-04-25T16:00:17.719Z,17.90
2019-04-25T16:02:45.885Z,18.30
2019-04-25T16:05:15.633Z,18.10
2019-04-25T16:07:44.397Z,18.00
2019-04-25T16:10:13.341Z,18.10
2019-04-25T16:12:42.437Z,18.50
2019-04-25T16:15:11.083Z,18.40
2019-04-25T16:17:39.749Z,18.80
2019-04-25T16:20:08.429Z,18.60
2019-04-25T16:22:36.635Z,18.90
2019-04-25T16:25:05.787Z,19.30
2019-04-25T16:27:33.650Z,18.90
2019-04-25T16:30:02.244Z,19.10
2019-04-25T16:32:30.456Z,19.20
2019-04-25T16:34:58.887Z,19.20
2019-04-25T16:37:27.945Z,19.80
2019-04-25T16:39:57.456Z,19.50
2019-04-25T16:42:27.895Z,19.60
2019-04-25T16:44:56.270Z,19.70
2019-04-25T16:47:26.172Z,19.70
2019-04-25T16:49:54.491Z,20.00
2019-04-25T16:52:24.440Z,19.80
2019-04-25T16:54:52.495Z,19.60
2019-04-25T16:57:21.410Z,19.60
2019-04-25T16:59:49.364Z,19.90
2019-04-25T17:02:18.332Z,20.10
2019-04-25T17:04:46.357Z,19.80
2019-04-25T17:07:15.109Z,20.70
2019-04-25T17:09:43.128Z,23.10
2019-04-25T17:12:12.690Z,24.90
2019-04-25T17:14:54.716Z,26.60
2019-04-25T17:17:41.004Z,27.00
2019-04-25T17:20:28.696Z,27.70
2019-04-25T17:22:58.724Z,30.20
2019-04-25T17:25:27.880Z,33.00
2019-04-25T17:27:56.403Z,34.70
2019-04-25T17:30:26.953Z,35.40
2019-04-25T17:33:08.008Z,36.20
2019-04-25T17:36:05.083Z,37.60
2019-04-25T17:38:38.688Z,36.50
2019-04-25T17:41:07.699Z,36.30
2019-04-25T17:43:36.813Z,35.90
2019-04-25T17:46:07.125Z,35.80
2019-04-25T17:48:36.150Z,34.60
2019-04-25T17:51:04.649Z,35.90
2019-04-25T17:53:34.319Z,36.80
2019-04-25T17:56:05.040Z,36.40
2019-04-25T17:58:33.349Z,36.40
2019-04-25T18:01:03.413Z,37.90
2019-04-25T18:03:33.745Z,37.10
2019-04-25T18:06:01.977Z,37.50
2019-04-25T18:08:30.218Z,38.30
2019-04-25T18:10:58.310Z,38.60
2019-04-25T18:13:26.398Z,39.00
2019-04-25T18:16:03.529Z,40.80
2019-04-25T18:18:59.964Z,41.80
2019-04-25T18:21:28.241Z,41.70
2019-04-25T18:24:14.769Z,43.20
2019-04-25T18:27:02.302Z,43.80
2019-04-25T18:29:30.666Z,45.30
2019-04-25T18:31:58.844Z,45.40
2019-04-25T18:34:42.379Z,46.60
2019-04-25T18:37:28.577Z,46.60
2019-04-25T18:40:05.989Z,46.60
2019-04-25T18:42:59.731Z,47.70
2019-04-25T18:45:30.490Z,48.90
2019-04-25T18:48:00.701Z,48.60
2019-04-25T18:50:30.602Z,48.90
2019-04-25T18:53:07.939Z,49.70
2019-04-25T18:55:45.776Z,50.20
2019-04-25T18:58:27.290Z,50.30
2019-04-25T19:01:13.654Z,51.50
2019-04-25T19:04:02.261Z,51.80
2019-04-25T19:06:30.691Z,51.40
2019-04-25T19:08:58.776Z,52.10
2019-04-25T19:11:26.893Z,52.80
2019-04-25T19:13:54.941Z,52.10
2019-04-25T19:16:23.300Z,51.90
2019-04-25T19:18:51.615Z,50.90
2019-04-25T19:21:20.871Z,50.70
2019-04-25T19:23:49.032Z,50.90
2019-04-25T19:26:19.418Z,50.50
2019-04-25T19:28:47.412Z,49.80
2019-04-25T19:31:15.839Z,49.50
2019-04-25T19:33:43.852Z,49.70
2019-04-25T19:36:12.001Z,49.80
2019-04-25T19:38:41.962Z,50.40
2019-04-25T19:41:21.717Z,51.30
2019-04-25T19:44:12.203Z,51.70
2019-04-25T19:46:47.122Z,53.00
2019-04-25T19:49:15.801Z,53.20
2019-04-25T19:51:45.092Z,52.70
2019-04-25T19:54:13.686Z,53.40
2019-04-25T19:56:42.647Z,53.40
2019-04-25T19:59:11.566Z,55.00
2019-04-25T20:01:39.770Z,56.40
2019-04-25T20:04:30.112Z,57.80
2019-04-25T20:07:17.041Z,57.50
2019-04-25T20:10:07.490Z,54.30
2019-04-25T20:12:39.610Z,54.00
2019-04-25T20:15:08.353Z,54.10
2019-04-25T20:17:36.540Z,54.10
2019-04-25T20:20:05.458Z,55.00
2019-04-25T20:22:33.549Z,55.30
2019-04-25T20:25:01.885Z,54.90
2019-04-25T20:27:30.082Z,54.50
2019-04-25T20:29:58.430Z,54.40
2019-04-25T20:32:26.601Z,55.00
2019-04-25T20:34:55.271Z,55.40
2019-04-25T20:37:23.735Z,55.90
2019-04-25T20:39:52.131Z,56.00
2019-04-25T20:42:20.461Z,56.90
2019-04-25T20:44:49.538Z,57.90
2019-04-25T20:47:17.680Z,58.10
2019-04-25T20:49:46.616Z,60.10
2019-04-25T20:52:14.763Z,60.10
2019-04-25T20:54:43.130Z,60.20
2019-04-25T20:57:11.654Z,60.50
2019-04-25T20:59:40.154Z,60.50
2019-04-25T21:02:08.767Z,60.40
2019-04-25T21:04:40.078Z,60.60
2019-04-25T21:07:08.694Z,61.20
2019-04-25T21:09:36.695Z,62.40
2019-04-25T21:12:05.805Z,62.50
2019-04-25T21:14:42.229Z,62.40
2019-04-25T21:17:17.288Z,62.10
2019-04-25T21:19:45.607Z,62.20
2019-04-25T21:22:13.593Z,62.30
2019-04-25T21:24:42.890Z,62.90
2019-04-25T21:27:11.384Z,62.80
2019-04-25T21:29:39.470Z,62.50
2019-04-25T21:32:07.382Z,62.50
2019-04-25T21:34:35.485Z,62.60
2019-04-25T21:37:03.985Z,63.80
2019-04-25T21:39:55.856Z,62.90
2019-04-25T21:42:51.569Z,63.00
2019-04-25T21:45:21.388Z,62.60
2019-04-25T21:47:50.087Z,63.20
2019-04-25T21:50:18.895Z,63.10
2019-04-25T21:52:47.662Z,63.90
2019-04-25T21:55:16.055Z,64.50
2019-04-25T21:57:44.337Z,64.30
2019-04-25T22:00:15.263Z,64.30
2019-04-25T22:02:43.934Z,64.70
2019-04-25T22:05:12.472Z,64.00
2019-04-25T22:07:40.723Z,64.00
2019-04-25T22:10:09.610Z,64.40
2019-04-25T22:12:38.729Z,64.90
2019-04-25T22:15:10.498Z,65.00
2019-04-25T22:17:38.591Z,64.50
2019-04-25T22:20:07.808Z,64.90
2019-04-25T22:22:35.750Z,66.30
2019-04-25T22:25:04.673Z,68.30
2019-04-25T22:27:36.680Z,69.80
2019-04-25T22:30:07.856Z,70.30
2019-04-25T22:32:49.496Z,73.40
2019-04-25T22:35:26.051Z,75.80
2019-04-25T22:37:54.124Z,74.00
2019-04-25T22:40:22.903Z,73.70
2019-04-25T22:42:50.813Z,77.70
2019-04-25T22:45:20.749Z,79.30
2019-04-25T22:47:49.102Z,81.50
2019-04-25T22:50:17.107Z,87.50
2019-04-25T22:52:45.455Z,93.20
2019-04-25T22:55:13.543Z,96.30
2019-04-25T22:57:41.839Z,98.40
2019-04-25T23:00:13.544Z,98.80
2019-04-25T23:02:47.853Z,99.20
2019-04-25T23:05:25.368Z,99.30
2019-04-25T23:07:53.798Z,99.90
2019-04-25T23:10:22.155Z,99.90
2019-04-25T23:12:50.042Z,99.90
2019-04-25T23:15:18.171Z,99.90
2019-04-25T23:17:48.495Z,99.90
2019-04-25T23:20:16.902Z,99.90
2019-04-25T23:22:44.766Z,99.90
2019-04-25T23:25:15.357Z,99.90
2019-04-25T23:28:01.511Z,99.90
2019-04-25T23:30:58.496Z,99.90
2019-04-25T23:33:26.960Z,99.90
2019-04-25T23:35:55.039Z,99.90
2019-04-25T23:38:23.038Z,99.90
2019-04-25T23:40:50.915Z,99.90
2019-04-25T23:43:19.295Z,99.90
2019-04-25T23:45:47.360Z,99.90
2019-04-25T23:48:16.546Z,99.90
2019-04-25T23:50:44.845Z,99.90
2019-04-25T23:53:13.132Z,99.90
2019-04-25T23:55:41.229Z,99.90
2019-04-25T23:58:09.613Z,99.90
